This is the latest recevied weather packets stored in our database for station/object OK0EK-12. If no packets are shown the sender has not sent any weather packets the latest 10 day(s).
| Time | Temp. | Humidity | Pressure | Rain* | Wind** | Luminosity | Snow |
|---|---|---|---|---|---|---|---|
| 1777191408 | 12.78° C | 35% | 1100.5 hPa | - | - | - | - |
| 1777190808 | 12.22° C | 39% | 1100.6 hPa | - | - | - | - |
| 1777190213 | 12.22° C | 36% | 1100.1 hPa | - | - | - | - |
| 1777189607 | 15.56° C | 32% | 1100.2 hPa | - | - | - | - |
| 1777189007 | 13.89° C | 37% | 1100.2 hPa | - | - | - | - |
| 1777188408 | 10.56° C | 43% | 1100.1 hPa | - | - | - | - |
| 1777187805 | 10.56° C | 45% | 1100 hPa | - | - | - | - |
| 1777187206 | 10° C | 46% | 1099.8 hPa | - | - | - | - |
| 1777186606 | 11.11° C | 42% | 1099.5 hPa | - | - | - | - |
| 1777186006 | 12.78° C | 41% | 1099.5 hPa | - | - | - | - |
| 1777185406 | 12.22° C | 42% | 1099.4 hPa | - | - | - | - |
| 1777184806 | 11.11° C | 44% | 1099.2 hPa | - | - | - | - |
| 1777184206 | 10.56° C | 46% | 1099.3 hPa | - | - | - | - |
| 1777183605 | 8.33° C | 52% | 1099.3 hPa | - | - | - | - |
| 1777183005 | 9.44° C | 50% | 1099.2 hPa | - | - | - | - |
| 1777182405 | 8.33° C | 50% | 1098.9 hPa | - | - | - | - |
| 1777181805 | 7.78° C | 51% | 1098.7 hPa | - | - | - | - |
| 1777181205 | 8.33° C | 49% | 1098.5 hPa | - | - | - | - |
| 1777180605 | 7.78° C | 51% | 1098.5 hPa | - | - | - | - |
| 1777180005 | 6.67° C | 53% | 1098.3 hPa | - | - | - | - |
| 1777179404 | 6.67° C | 53% | 1098.2 hPa | - | - | - | - |
| 1777178804 | 6.67° C | 53% | 1098 hPa | - | - | - | - |
| 1777178205 | 6.11° C | 53% | 1097.9 hPa | - | - | - | - |
| 1777177606 | 6.11° C | 55% | 1097.7 hPa | - | - | - | - |
| 1777177004 | 6.11° C | 55% | 1097.5 hPa | - | - | - | - |
* Rain since midnight (hover to see other rain measurements)
** Current wind speed in m/s (hover to see current wind gust speed)